sensor_id;sensor_type;location;lat;lon;timestamp;temperature;humidity
37446;DHT22;23307;51.136;14.942;2024-03-22T00:00:41;9.70;99.90
37446;DHT22;23307;51.136;14.942;2024-03-22T00:03:06;9.80;99.90
37446;DHT22;23307;51.136;14.942;2024-03-22T00:05:32;9.70;99.90
37446;DHT22;23307;51.136;14.942;2024-03-22T00:07:57;9.80;99.90
37446;DHT22;23307;51.136;14.942;2024-03-22T00:10:23;9.80;99.90
37446;DHT22;23307;51.136;14.942;2024-03-22T00:12:49;9.80;99.90
37446;DHT22;23307;51.136;14.942;2024-03-22T00:15:15;9.80;99.90
37446;DHT22;23307;51.136;14.942;2024-03-22T00:17:42;9.80;99.90
37446;DHT22;23307;51.136;14.942;2024-03-22T00:20:08;9.80;99.90
37446;DHT22;23307;51.136;14.942;2024-03-22T00:22:33;9.80;99.90
37446;DHT22;23307;51.136;14.942;2024-03-22T00:24:59;9.80;99.90
37446;DHT22;23307;51.136;14.942;2024-03-22T00:27:24;9.80;99.90
37446;DHT22;23307;51.136;14.942;2024-03-22T00:29:50;9.70;99.90
37446;DHT22;23307;51.136;14.942;2024-03-22T00:32:15;9.60;99.90
37446;DHT22;23307;51.136;14.942;2024-03-22T00:34:41;9.50;99.90
37446;DHT22;23307;51.136;14.942;2024-03-22T00:37:06;9.50;99.90
37446;DHT22;23307;51.136;14.942;2024-03-22T00:39:32;9.50;99.90
37446;DHT22;23307;51.136;14.942;2024-03-22T00:41:57;9.40;99.90
37446;DHT22;23307;51.136;14.942;2024-03-22T00:44:23;9.40;99.90
37446;DHT22;23307;51.136;14.942;2024-03-22T00:46:48;9.30;99.90
37446;DHT22;23307;51.136;14.942;2024-03-22T00:49:14;9.30;99.90
37446;DHT22;23307;51.136;14.942;2024-03-22T00:51:39;9.30;99.90
37446;DHT22;23307;51.136;14.942;2024-03-22T00:54:05;9.30;99.90
37446;DHT22;23307;51.136;14.942;2024-03-22T00:56:30;9.30;99.90
37446;DHT22;23307;51.136;14.942;2024-03-22T00:58:56;9.30;99.90
37446;DHT22;23307;51.136;14.942;2024-03-22T01:01:21;9.30;99.90
37446;DHT22;23307;51.136;14.942;2024-03-22T01:03:47;9.30;99.90
37446;DHT22;23307;51.136;14.942;2024-03-22T01:06:13;9.30;99.90
37446;DHT22;23307;51.136;14.942;2024-03-22T01:08:38;9.30;99.90
37446;DHT22;23307;51.136;14.942;2024-03-22T01:11:04;9.40;99.90
37446;DHT22;23307;51.136;14.942;2024-03-22T01:13:29;9.40;99.90
37446;DHT22;23307;51.136;14.942;2024-03-22T01:15:55;9.40;99.90
37446;DHT22;23307;51.136;14.942;2024-03-22T01:18:21;9.50;99.90
37446;DHT22;23307;51.136;14.942;2024-03-22T01:20:46;9.40;99.90
37446;DHT22;23307;51.136;14.942;2024-03-22T01:23:11;9.40;99.90
37446;DHT22;23307;51.136;14.942;2024-03-22T01:25:37;9.40;99.90
37446;DHT22;23307;51.136;14.942;2024-03-22T01:28:03;9.40;99.90
37446;DHT22;23307;51.136;14.942;2024-03-22T01:30:29;9.40;99.90
37446;DHT22;23307;51.136;14.942;2024-03-22T01:32:55;9.40;99.90
37446;DHT22;23307;51.136;14.942;2024-03-22T01:35:21;9.40;99.90
37446;DHT22;23307;51.136;14.942;2024-03-22T01:37:47;9.50;99.90
37446;DHT22;23307;51.136;14.942;2024-03-22T01:40:13;9.50;99.90
37446;DHT22;23307;51.136;14.942;2024-03-22T01:42:39;9.50;99.90
37446;DHT22;23307;51.136;14.942;2024-03-22T01:45:05;9.60;99.90
37446;DHT22;23307;51.136;14.942;2024-03-22T01:47:31;9.60;99.90
37446;DHT22;23307;51.136;14.942;2024-03-22T01:49:57;9.60;99.90
37446;DHT22;23307;51.136;14.942;2024-03-22T01:52:23;9.50;99.90
37446;DHT22;23307;51.136;14.942;2024-03-22T01:54:49;9.60;99.90
37446;DHT22;23307;51.136;14.942;2024-03-22T01:57:15;9.50;99.90
37446;DHT22;23307;51.136;14.942;2024-03-22T01:59:40;9.50;99.90
37446;DHT22;23307;51.136;14.942;2024-03-22T02:02:06;9.50;99.90
37446;DHT22;23307;51.136;14.942;2024-03-22T02:04:31;9.50;99.90
37446;DHT22;23307;51.136;14.942;2024-03-22T02:06:57;9.60;99.90
37446;DHT22;23307;51.136;14.942;2024-03-22T02:09:22;9.60;99.90
37446;DHT22;23307;51.136;14.942;2024-03-22T02:11:49;9.60;99.90
37446;DHT22;23307;51.136;14.942;2024-03-22T02:14:14;9.60;99.90
37446;DHT22;23307;51.136;14.942;2024-03-22T02:16:40;9.60;99.90
37446;DHT22;23307;51.136;14.942;2024-03-22T02:19:06;9.60;99.90
37446;DHT22;23307;51.136;14.942;2024-03-22T02:21:32;9.60;99.90
37446;DHT22;23307;51.136;14.942;2024-03-22T02:23:57;9.60;99.90
37446;DHT22;23307;51.136;14.942;2024-03-22T02:26:23;9.70;99.90
37446;DHT22;23307;51.136;14.942;2024-03-22T02:28:48;9.70;99.90
37446;DHT22;23307;51.136;14.942;2024-03-22T02:31:14;9.70;99.90
37446;DHT22;23307;51.136;14.942;2024-03-22T02:33:40;9.70;99.90
37446;DHT22;23307;51.136;14.942;2024-03-22T02:36:05;9.70;99.90
37446;DHT22;23307;51.136;14.942;2024-03-22T02:38:31;9.70;99.90
37446;DHT22;23307;51.136;14.942;2024-03-22T02:40:58;9.70;99.90
37446;DHT22;23307;51.136;14.942;2024-03-22T02:43:23;9.70;99.90
37446;DHT22;23307;51.136;14.942;2024-03-22T02:45:49;9.70;99.90
37446;DHT22;23307;51.136;14.942;2024-03-22T02:48:15;9.70;99.90
37446;DHT22;23307;51.136;14.942;2024-03-22T02:50:40;9.70;99.90
37446;DHT22;23307;51.136;14.942;2024-03-22T02:53:06;9.70;99.90
37446;DHT22;23307;51.136;14.942;2024-03-22T02:58:40;9.70;99.90
37446;DHT22;23307;51.136;14.942;2024-03-22T03:01:05;9.70;99.90
37446;DHT22;23307;51.136;14.942;2024-03-22T03:03:31;9.70;99.90
37446;DHT22;23307;51.136;14.942;2024-03-22T03:05:56;9.70;99.90
37446;DHT22;23307;51.136;14.942;2024-03-22T03:08:22;9.60;99.90
37446;DHT22;23307;51.136;14.942;2024-03-22T03:10:47;9.60;99.90
37446;DHT22;23307;51.136;14.942;2024-03-22T03:13:13;9.60;99.90
37446;DHT22;23307;51.136;14.942;2024-03-22T03:15:38;9.60;99.90
37446;DHT22;23307;51.136;14.942;2024-03-22T03:18:04;9.60;99.90
37446;DHT22;23307;51.136;14.942;2024-03-22T03:20:29;9.60;99.90
37446;DHT22;23307;51.136;14.942;2024-03-22T03:22:55;9.60;99.90
37446;DHT22;23307;51.136;14.942;2024-03-22T03:25:23;9.60;99.90
37446;DHT22;23307;51.136;14.942;2024-03-22T03:27:48;9.70;99.90
37446;DHT22;23307;51.136;14.942;2024-03-22T03:30:14;9.60;99.90
37446;DHT22;23307;51.136;14.942;2024-03-22T03:32:39;9.60;99.90
37446;DHT22;23307;51.136;14.942;2024-03-22T03:35:05;9.60;99.90
37446;DHT22;23307;51.136;14.942;2024-03-22T03:37:31;9.60;99.90
37446;DHT22;23307;51.136;14.942;2024-03-22T03:39:56;9.60;99.90
37446;DHT22;23307;51.136;14.942;2024-03-22T03:42:22;9.60;99.90
37446;DHT22;23307;51.136;14.942;2024-03-22T03:44:47;9.50;99.90
37446;DHT22;23307;51.136;14.942;2024-03-22T03:47:13;9.50;99.90
37446;DHT22;23307;51.136;14.942;2024-03-22T03:49:38;9.50;99.90
37446;DHT22;23307;51.136;14.942;2024-03-22T03:52:04;9.50;99.90
37446;DHT22;23307;51.136;14.942;2024-03-22T03:54:29;9.50;99.90
37446;DHT22;23307;51.136;14.942;2024-03-22T03:56:55;9.50;99.90
37446;DHT22;23307;51.136;14.942;2024-03-22T03:59:20;9.50;99.90
37446;DHT22;23307;51.136;14.942;2024-03-22T04:01:46;9.50;99.90
37446;DHT22;23307;51.136;14.942;2024-03-22T04:04:11;9.50;99.90
37446;DHT22;23307;51.136;14.942;2024-03-22T04:06:37;9.50;99.90
37446;DHT22;23307;51.136;14.942;2024-03-22T04:09:02;9.50;99.90
37446;DHT22;23307;51.136;14.942;2024-03-22T04:11:29;9.60;99.90
37446;DHT22;23307;51.136;14.942;2024-03-22T04:13:54;9.60;99.90
37446;DHT22;23307;51.136;14.942;2024-03-22T04:16:20;9.60;99.90
37446;DHT22;23307;51.136;14.942;2024-03-22T04:18:45;9.60;99.90
37446;DHT22;23307;51.136;14.942;2024-03-22T04:21:11;9.60;99.90
37446;DHT22;23307;51.136;14.942;2024-03-22T04:23:36;9.60;99.90
37446;DHT22;23307;51.136;14.942;2024-03-22T04:26:02;9.60;99.90
37446;DHT22;23307;51.136;14.942;2024-03-22T04:28:28;9.60;99.90
37446;DHT22;23307;51.136;14.942;2024-03-22T04:31:05;9.60;99.90
37446;DHT22;23307;51.136;14.942;2024-03-22T04:33:31;9.70;99.90
37446;DHT22;23307;51.136;14.942;2024-03-22T04:35:59;9.70;99.90
37446;DHT22;23307;51.136;14.942;2024-03-22T04:38:25;9.60;99.90
37446;DHT22;23307;51.136;14.942;2024-03-22T04:40:52;9.70;99.90
37446;DHT22;23307;51.136;14.942;2024-03-22T04:43:18;9.60;99.90
37446;DHT22;23307;51.136;14.942;2024-03-22T04:45:44;9.60;99.90
37446;DHT22;23307;51.136;14.942;2024-03-22T04:48:12;9.60;99.90
37446;DHT22;23307;51.136;14.942;2024-03-22T04:50:38;9.60;99.90
37446;DHT22;23307;51.136;14.942;2024-03-22T04:53:04;9.60;99.90
37446;DHT22;23307;51.136;14.942;2024-03-22T04:55:30;9.60;99.90
37446;DHT22;23307;51.136;14.942;2024-03-22T04:57:56;9.60;99.90
37446;DHT22;23307;51.136;14.942;2024-03-22T05:00:21;9.70;99.90
37446;DHT22;23307;51.136;14.942;2024-03-22T05:02:47;9.60;99.90
37446;DHT22;23307;51.136;14.942;2024-03-22T05:05:13;9.60;99.90
37446;DHT22;23307;51.136;14.942;2024-03-22T05:07:38;9.70;99.90
37446;DHT22;23307;51.136;14.942;2024-03-22T05:10:04;9.70;99.90
37446;DHT22;23307;51.136;14.942;2024-03-22T05:12:30;9.70;99.90
37446;DHT22;23307;51.136;14.942;2024-03-22T05:14:56;9.70;99.90
37446;DHT22;23307;51.136;14.942;2024-03-22T05:17:21;9.70;99.90
37446;DHT22;23307;51.136;14.942;2024-03-22T05:19:47;9.70;99.90
37446;DHT22;23307;51.136;14.942;2024-03-22T05:22:12;9.80;99.90
37446;DHT22;23307;51.136;14.942;2024-03-22T05:24:38;9.80;99.90
37446;DHT22;23307;51.136;14.942;2024-03-22T05:27:04;9.80;99.90
37446;DHT22;23307;51.136;14.942;2024-03-22T05:29:29;9.80;99.90
37446;DHT22;23307;51.136;14.942;2024-03-22T05:31:55;9.80;99.90
37446;DHT22;23307;51.136;14.942;2024-03-22T05:34:20;9.70;99.90
37446;DHT22;23307;51.136;14.942;2024-03-22T05:36:46;9.70;99.90
37446;DHT22;23307;51.136;14.942;2024-03-22T05:39:12;9.80;99.90
37446;DHT22;23307;51.136;14.942;2024-03-22T05:41:38;9.80;99.90
37446;DHT22;23307;51.136;14.942;2024-03-22T05:44:03;9.70;99.90
37446;DHT22;23307;51.136;14.942;2024-03-22T05:46:29;9.70;99.90
37446;DHT22;23307;51.136;14.942;2024-03-22T05:48:56;9.70;99.90
37446;DHT22;23307;51.136;14.942;2024-03-22T05:51:22;9.70;99.90
37446;DHT22;23307;51.136;14.942;2024-03-22T05:53:48;9.70;99.90
37446;DHT22;23307;51.136;14.942;2024-03-22T05:56:13;9.70;99.90
37446;DHT22;23307;51.136;14.942;2024-03-22T05:58:39;9.70;99.90
37446;DHT22;23307;51.136;14.942;2024-03-22T06:01:05;9.70;99.90
37446;DHT22;23307;51.136;14.942;2024-03-22T06:03:31;9.80;99.90
37446;DHT22;23307;51.136;14.942;2024-03-22T06:05:57;9.80;99.90
37446;DHT22;23307;51.136;14.942;2024-03-22T06:08:26;9.80;99.90
37446;DHT22;23307;51.136;14.942;2024-03-22T06:10:55;9.80;99.90
37446;DHT22;23307;51.136;14.942;2024-03-22T06:13:24;9.80;99.90
37446;DHT22;23307;51.136;14.942;2024-03-22T06:15:49;9.70;99.90
37446;DHT22;23307;51.136;14.942;2024-03-22T06:18:15;9.80;99.90
37446;DHT22;23307;51.136;14.942;2024-03-22T06:20:41;9.80;99.90
37446;DHT22;23307;51.136;14.942;2024-03-22T06:23:07;9.80;99.90
37446;DHT22;23307;51.136;14.942;2024-03-22T06:25:33;9.80;99.90
37446;DHT22;23307;51.136;14.942;2024-03-22T06:27:59;9.80;99.90
37446;DHT22;23307;51.136;14.942;2024-03-22T06:30:24;9.80;99.90
37446;DHT22;23307;51.136;14.942;2024-03-22T06:32:50;9.80;99.90
37446;DHT22;23307;51.136;14.942;2024-03-22T06:35:15;9.80;99.90
37446;DHT22;23307;51.136;14.942;2024-03-22T06:37:41;9.90;99.90
37446;DHT22;23307;51.136;14.942;2024-03-22T06:40:07;9.90;99.90
37446;DHT22;23307;51.136;14.942;2024-03-22T06:42:33;10.00;99.90
37446;DHT22;23307;51.136;14.942;2024-03-22T06:44:58;10.00;99.90
37446;DHT22;23307;51.136;14.942;2024-03-22T06:47:24;10.10;99.90
37446;DHT22;23307;51.136;14.942;2024-03-22T06:49:49;10.20;99.90
37446;DHT22;23307;51.136;14.942;2024-03-22T06:52:15;10.20;99.90
37446;DHT22;23307;51.136;14.942;2024-03-22T06:54:41;10.20;99.90
37446;DHT22;23307;51.136;14.942;2024-03-22T06:57:06;10.30;99.90
37446;DHT22;23307;51.136;14.942;2024-03-22T06:59:32;10.40;99.90
37446;DHT22;23307;51.136;14.942;2024-03-22T07:01:57;10.40;99.90
37446;DHT22;23307;51.136;14.942;2024-03-22T07:04:23;10.50;99.90
37446;DHT22;23307;51.136;14.942;2024-03-22T07:06:48;10.60;99.90
37446;DHT22;23307;51.136;14.942;2024-03-22T07:09:14;10.70;99.90
37446;DHT22;23307;51.136;14.942;2024-03-22T07:11:39;10.80;99.90
37446;DHT22;23307;51.136;14.942;2024-03-22T07:14:05;10.90;99.90
37446;DHT22;23307;51.136;14.942;2024-03-22T07:16:30;10.90;99.90
37446;DHT22;23307;51.136;14.942;2024-03-22T07:18:56;11.00;99.90
37446;DHT22;23307;51.136;14.942;2024-03-22T07:21:21;11.00;99.90
37446;DHT22;23307;51.136;14.942;2024-03-22T07:23:47;11.10;99.90
37446;DHT22;23307;51.136;14.942;2024-03-22T07:26:12;11.20;99.90
37446;DHT22;23307;51.136;14.942;2024-03-22T07:28:38;11.20;99.90
37446;DHT22;23307;51.136;14.942;2024-03-22T07:31:03;11.20;99.90
37446;DHT22;23307;51.136;14.942;2024-03-22T07:33:30;11.30;99.90
37446;DHT22;23307;51.136;14.942;2024-03-22T07:36:00;11.30;99.90
37446;DHT22;23307;51.136;14.942;2024-03-22T07:38:26;11.30;99.90
37446;DHT22;23307;51.136;14.942;2024-03-22T07:40:51;11.40;99.90
37446;DHT22;23307;51.136;14.942;2024-03-22T07:43:18;11.40;99.90
37446;DHT22;23307;51.136;14.942;2024-03-22T07:45:43;11.50;99.90
37446;DHT22;23307;51.136;14.942;2024-03-22T07:48:09;11.60;99.90
37446;DHT22;23307;51.136;14.942;2024-03-22T07:50:35;11.60;99.90
37446;DHT22;23307;51.136;14.942;2024-03-22T07:53:01;11.70;99.90
37446;DHT22;23307;51.136;14.942;2024-03-22T07:55:26;11.80;99.90
37446;DHT22;23307;51.136;14.942;2024-03-22T07:57:52;11.90;99.90
37446;DHT22;23307;51.136;14.942;2024-03-22T08:00:17;11.90;99.90
37446;DHT22;23307;51.136;14.942;2024-03-22T08:02:43;12.00;99.90
37446;DHT22;23307;51.136;14.942;2024-03-22T08:05:09;12.10;99.90
37446;DHT22;23307;51.136;14.942;2024-03-22T08:07:34;12.30;99.90
37446;DHT22;23307;51.136;14.942;2024-03-22T08:10:00;12.40;99.90
37446;DHT22;23307;51.136;14.942;2024-03-22T08:12:27;12.60;99.90
37446;DHT22;23307;51.136;14.942;2024-03-22T08:14:53;12.70;99.90
37446;DHT22;23307;51.136;14.942;2024-03-22T08:17:18;12.80;99.90
37446;DHT22;23307;51.136;14.942;2024-03-22T08:19:44;12.90;99.90
37446;DHT22;23307;51.136;14.942;2024-03-22T08:22:10;12.90;99.90
37446;DHT22;23307;51.136;14.942;2024-03-22T08:24:35;12.90;99.90
37446;DHT22;23307;51.136;14.942;2024-03-22T08:27:01;12.90;99.90
37446;DHT22;23307;51.136;14.942;2024-03-22T08:29:26;12.90;99.90
37446;DHT22;23307;51.136;14.942;2024-03-22T08:31:52;12.90;99.90
37446;DHT22;23307;51.136;14.942;2024-03-22T08:34:20;12.90;99.90
37446;DHT22;23307;51.136;14.942;2024-03-22T08:36:46;13.00;99.90
37446;DHT22;23307;51.136;14.942;2024-03-22T08:39:11;13.10;99.90
37446;DHT22;23307;51.136;14.942;2024-03-22T08:41:37;13.10;99.90
37446;DHT22;23307;51.136;14.942;2024-03-22T08:44:03;13.20;99.90
37446;DHT22;23307;51.136;14.942;2024-03-22T08:46:28;13.30;99.90
37446;DHT22;23307;51.136;14.942;2024-03-22T08:48:54;13.40;99.90
37446;DHT22;23307;51.136;14.942;2024-03-22T08:51:20;13.60;99.90
37446;DHT22;23307;51.136;14.942;2024-03-22T08:53:46;13.80;99.90
37446;DHT22;23307;51.136;14.942;2024-03-22T08:56:11;14.00;99.90
37446;DHT22;23307;51.136;14.942;2024-03-22T08:58:37;14.20;99.90
37446;DHT22;23307;51.136;14.942;2024-03-22T09:01:02;14.30;99.90
37446;DHT22;23307;51.136;14.942;2024-03-22T09:03:28;14.30;99.90
37446;DHT22;23307;51.136;14.942;2024-03-22T09:05:53;14.30;99.90
37446;DHT22;23307;51.136;14.942;2024-03-22T09:08:20;14.30;99.90
37446;DHT22;23307;51.136;14.942;2024-03-22T09:10:47;14.20;99.90
37446;DHT22;23307;51.136;14.942;2024-03-22T09:13:13;14.10;99.90
37446;DHT22;23307;51.136;14.942;2024-03-22T09:15:39;14.20;99.90
37446;DHT22;23307;51.136;14.942;2024-03-22T09:18:04;14.20;99.90
37446;DHT22;23307;51.136;14.942;2024-03-22T09:20:30;14.20;99.90
37446;DHT22;23307;51.136;14.942;2024-03-22T09:22:56;14.30;99.90
37446;DHT22;23307;51.136;14.942;2024-03-22T09:25:23;14.50;99.90
37446;DHT22;23307;51.136;14.942;2024-03-22T09:27:48;14.60;99.90
37446;DHT22;23307;51.136;14.942;2024-03-22T09:30:14;14.60;99.90
37446;DHT22;23307;51.136;14.942;2024-03-22T09:32:40;14.70;99.90
37446;DHT22;23307;51.136;14.942;2024-03-22T09:35:06;14.80;99.90
37446;DHT22;23307;51.136;14.942;2024-03-22T09:37:31;14.80;99.90
37446;DHT22;23307;51.136;14.942;2024-03-22T09:39:58;14.80;99.90
37446;DHT22;23307;51.136;14.942;2024-03-22T09:42:25;14.90;99.90
37446;DHT22;23307;51.136;14.942;2024-03-22T09:44:51;15.10;99.90
37446;DHT22;23307;51.136;14.942;2024-03-22T09:47:17;15.20;99.90
37446;DHT22;23307;51.136;14.942;2024-03-22T09:49:43;15.40;99.90
37446;DHT22;23307;51.136;14.942;2024-03-22T09:52:15;15.40;99.90
37446;DHT22;23307;51.136;14.942;2024-03-22T09:54:44;15.40;99.90
37446;DHT22;23307;51.136;14.942;2024-03-22T09:57:14;15.40;99.90
37446;DHT22;23307;51.136;14.942;2024-03-22T09:59:46;15.50;99.90
37446;DHT22;23307;51.136;14.942;2024-03-22T10:02:12;15.60;99.90
37446;DHT22;23307;51.136;14.942;2024-03-22T10:04:38;15.80;99.90
37446;DHT22;23307;51.136;14.942;2024-03-22T10:07:04;16.00;99.90
37446;DHT22;23307;51.136;14.942;2024-03-22T10:09:30;16.00;99.90
37446;DHT22;23307;51.136;14.942;2024-03-22T10:11:56;16.00;99.90
37446;DHT22;23307;51.136;14.942;2024-03-22T10:14:22;16.00;99.90
37446;DHT22;23307;51.136;14.942;2024-03-22T10:16:51;16.00;99.90
37446;DHT22;23307;51.136;14.942;2024-03-22T10:19:19;16.00;99.90
37446;DHT22;23307;51.136;14.942;2024-03-22T10:21:44;16.10;99.90
37446;DHT22;23307;51.136;14.942;2024-03-22T10:24:09;16.30;99.90
37446;DHT22;23307;51.136;14.942;2024-03-22T10:26:35;16.40;99.90
37446;DHT22;23307;51.136;14.942;2024-03-22T10:29:05;16.50;99.90
37446;DHT22;23307;51.136;14.942;2024-03-22T10:31:30;16.50;99.90
37446;DHT22;23307;51.136;14.942;2024-03-22T10:33:56;16.60;99.90
37446;DHT22;23307;51.136;14.942;2024-03-22T10:36:23;16.70;99.90
37446;DHT22;23307;51.136;14.942;2024-03-22T10:38:50;16.70;99.40
37446;DHT22;23307;51.136;14.942;2024-03-22T10:41:16;16.70;99.10
37446;DHT22;23307;51.136;14.942;2024-03-22T10:43:42;16.70;99.40
37446;DHT22;23307;51.136;14.942;2024-03-22T10:46:08;16.70;98.50
37446;DHT22;23307;51.136;14.942;2024-03-22T10:48:34;16.70;98.50
37446;DHT22;23307;51.136;14.942;2024-03-22T10:51:01;16.70;97.70
37446;DHT22;23307;51.136;14.942;2024-03-22T10:53:28;16.60;96.70
37446;DHT22;23307;51.136;14.942;2024-03-22T10:55:57;16.50;96.20
37446;DHT22;23307;51.136;14.942;2024-03-22T10:58:25;16.50;96.10
37446;DHT22;23307;51.136;14.942;2024-03-22T11:00:52;16.60;96.50
37446;DHT22;23307;51.136;14.942;2024-03-22T11:03:21;16.70;96.30
37446;DHT22;23307;51.136;14.942;2024-03-22T11:05:56;16.80;95.80
37446;DHT22;23307;51.136;14.942;2024-03-22T11:08:29;16.80;95.70
37446;DHT22;23307;51.136;14.942;2024-03-22T11:10:58;16.80;95.70
37446;DHT22;23307;51.136;14.942;2024-03-22T11:13:36;16.70;94.90
37446;DHT22;23307;51.136;14.942;2024-03-22T11:16:02;16.70;94.60
37446;DHT22;23307;51.136;14.942;2024-03-22T11:18:27;16.60;94.10
37446;DHT22;23307;51.136;14.942;2024-03-22T11:20:53;16.50;94.30
37446;DHT22;23307;51.136;14.942;2024-03-22T11:23:19;16.50;94.20
37446;DHT22;23307;51.136;14.942;2024-03-22T11:25:45;16.50;94.50
37446;DHT22;23307;51.136;14.942;2024-03-22T11:28:11;16.50;94.20
37446;DHT22;23307;51.136;14.942;2024-03-22T11:30:37;16.60;94.40
37446;DHT22;23307;51.136;14.942;2024-03-22T11:33:04;16.60;94.40
37446;DHT22;23307;51.136;14.942;2024-03-22T11:35:31;16.70;94.30
37446;DHT22;23307;51.136;14.942;2024-03-22T11:37:57;16.90;94.80
37446;DHT22;23307;51.136;14.942;2024-03-22T11:40:27;17.10;94.80
37446;DHT22;23307;51.136;14.942;2024-03-22T11:42:55;17.10;94.30
37446;DHT22;23307;51.136;14.942;2024-03-22T11:45:22;17.10;94.80
37446;DHT22;23307;51.136;14.942;2024-03-22T11:47:48;17.20;94.90
37446;DHT22;23307;51.136;14.942;2024-03-22T11:50:15;17.30;94.70
37446;DHT22;23307;51.136;14.942;2024-03-22T11:52:41;17.20;94.40
37446;DHT22;23307;51.136;14.942;2024-03-22T11:55:07;17.20;94.40
37446;DHT22;23307;51.136;14.942;2024-03-22T11:57:33;17.10;94.20
37446;DHT22;23307;51.136;14.942;2024-03-22T12:00:00;17.10;93.70
37446;DHT22;23307;51.136;14.942;2024-03-22T12:02:25;17.10;94.10
37446;DHT22;23307;51.136;14.942;2024-03-22T12:04:51;17.10;94.80
37446;DHT22;23307;51.136;14.942;2024-03-22T12:07:17;17.10;95.00
37446;DHT22;23307;51.136;14.942;2024-03-22T12:09:46;17.10;95.70
37446;DHT22;23307;51.136;14.942;2024-03-22T12:12:12;17.10;95.70
37446;DHT22;23307;51.136;14.942;2024-03-22T12:14:38;17.20;95.70
37446;DHT22;23307;51.136;14.942;2024-03-22T12:17:04;17.20;95.40
37446;DHT22;23307;51.136;14.942;2024-03-22T12:19:30;17.30;95.70
37446;DHT22;23307;51.136;14.942;2024-03-22T12:21:55;17.40;95.50
37446;DHT22;23307;51.136;14.942;2024-03-22T12:24:22;17.40;94.90
37446;DHT22;23307;51.136;14.942;2024-03-22T12:26:48;17.40;95.30
37446;DHT22;23307;51.136;14.942;2024-03-22T12:29:15;17.40;95.00
37446;DHT22;23307;51.136;14.942;2024-03-22T12:31:41;17.40;94.90
37446;DHT22;23307;51.136;14.942;2024-03-22T12:34:07;17.40;95.20
37446;DHT22;23307;51.136;14.942;2024-03-22T12:36:32;17.50;95.30
37446;DHT22;23307;51.136;14.942;2024-03-22T12:38:58;17.40;94.80
37446;DHT22;23307;51.136;14.942;2024-03-22T12:41:23;17.40;95.00
37446;DHT22;23307;51.136;14.942;2024-03-22T12:43:49;17.40;94.70
37446;DHT22;23307;51.136;14.942;2024-03-22T12:46:14;17.40;94.60
37446;DHT22;23307;51.136;14.942;2024-03-22T12:48:40;17.40;95.10
37446;DHT22;23307;51.136;14.942;2024-03-22T12:51:06;17.60;95.20
37446;DHT22;23307;51.136;14.942;2024-03-22T12:53:32;17.80;94.60
37446;DHT22;23307;51.136;14.942;2024-03-22T12:55:57;17.90;94.80
37446;DHT22;23307;51.136;14.942;2024-03-22T12:58:23;18.00;94.20
37446;DHT22;23307;51.136;14.942;2024-03-22T13:00:48;18.10;94.70
37446;DHT22;23307;51.136;14.942;2024-03-22T13:03:14;18.30;95.20
37446;DHT22;23307;51.136;14.942;2024-03-22T13:05:41;18.40;94.40
37446;DHT22;23307;51.136;14.942;2024-03-22T13:08:07;18.50;93.90
37446;DHT22;23307;51.136;14.942;2024-03-22T13:10:32;18.40;93.50
37446;DHT22;23307;51.136;14.942;2024-03-22T13:12:58;18.40;93.70
37446;DHT22;23307;51.136;14.942;2024-03-22T13:15:23;18.30;93.50
37446;DHT22;23307;51.136;14.942;2024-03-22T13:17:50;18.30;93.50
37446;DHT22;23307;51.136;14.942;2024-03-22T13:20:15;18.30;93.30
37446;DHT22;23307;51.136;14.942;2024-03-22T13:22:43;18.40;93.70
37446;DHT22;23307;51.136;14.942;2024-03-22T13:25:09;18.40;93.40
37446;DHT22;23307;51.136;14.942;2024-03-22T13:27:36;18.20;93.20
37446;DHT22;23307;51.136;14.942;2024-03-22T13:30:02;18.10;92.80
37446;DHT22;23307;51.136;14.942;2024-03-22T13:32:27;18.00;93.30
37446;DHT22;23307;51.136;14.942;2024-03-22T13:34:53;17.90;93.40
37446;DHT22;23307;51.136;14.942;2024-03-22T13:37:19;17.90;93.70
37446;DHT22;23307;51.136;14.942;2024-03-22T13:39:48;17.90;93.90
37446;DHT22;23307;51.136;14.942;2024-03-22T13:42:14;17.80;93.80
37446;DHT22;23307;51.136;14.942;2024-03-22T13:44:41;17.70;93.80
37446;DHT22;23307;51.136;14.942;2024-03-22T13:47:07;17.70;93.80
37446;DHT22;23307;51.136;14.942;2024-03-22T13:49:32;17.60;94.00
37446;DHT22;23307;51.136;14.942;2024-03-22T13:51:58;17.50;94.10
37446;DHT22;23307;51.136;14.942;2024-03-22T13:54:26;17.50;94.00
37446;DHT22;23307;51.136;14.942;2024-03-22T13:56:52;17.40;94.00
37446;DHT22;23307;51.136;14.942;2024-03-22T13:59:17;17.30;94.30
37446;DHT22;23307;51.136;14.942;2024-03-22T14:01:44;17.30;94.70
37446;DHT22;23307;51.136;14.942;2024-03-22T14:04:12;17.40;95.00
37446;DHT22;23307;51.136;14.942;2024-03-22T14:06:38;17.30;94.70
37446;DHT22;23307;51.136;14.942;2024-03-22T14:09:04;17.40;94.70
37446;DHT22;23307;51.136;14.942;2024-03-22T14:11:31;17.30;94.70
37446;DHT22;23307;51.136;14.942;2024-03-22T14:13:57;17.30;94.60
37446;DHT22;23307;51.136;14.942;2024-03-22T14:16:23;17.20;94.50
37446;DHT22;23307;51.136;14.942;2024-03-22T14:18:48;17.20;94.20
37446;DHT22;23307;51.136;14.942;2024-03-22T14:21:15;17.20;94.30
37446;DHT22;23307;51.136;14.942;2024-03-22T14:23:50;17.20;94.60
37446;DHT22;23307;51.136;14.942;2024-03-22T14:26:17;17.20;94.80
37446;DHT22;23307;51.136;14.942;2024-03-22T14:28:43;17.20;94.40
37446;DHT22;23307;51.136;14.942;2024-03-22T14:31:09;17.10;94.40
37446;DHT22;23307;51.136;14.942;2024-03-22T14:33:36;17.10;94.40
37446;DHT22;23307;51.136;14.942;2024-03-22T14:36:05;17.10;94.30
37446;DHT22;23307;51.136;14.942;2024-03-22T14:38:31;17.10;94.30
37446;DHT22;23307;51.136;14.942;2024-03-22T14:40:57;17.10;94.20
37446;DHT22;23307;51.136;14.942;2024-03-22T14:43:24;17.10;94.40
37446;DHT22;23307;51.136;14.942;2024-03-22T14:45:50;17.10;94.10
37446;DHT22;23307;51.136;14.942;2024-03-22T14:48:17;17.10;94.30
37446;DHT22;23307;51.136;14.942;2024-03-22T14:50:42;17.10;94.30
37446;DHT22;23307;51.136;14.942;2024-03-22T14:53:08;17.10;94.00
37446;DHT22;23307;51.136;14.942;2024-03-22T14:55:33;17.00;94.10
37446;DHT22;23307;51.136;14.942;2024-03-22T14:58:02;17.00;94.20
37446;DHT22;23307;51.136;14.942;2024-03-22T15:00:27;17.00;94.30
37446;DHT22;23307;51.136;14.942;2024-03-22T15:02:53;17.00;94.30
37446;DHT22;23307;51.136;14.942;2024-03-22T15:05:19;16.90;94.40
37446;DHT22;23307;51.136;14.942;2024-03-22T15:07:44;16.90;94.40
37446;DHT22;23307;51.136;14.942;2024-03-22T15:10:10;16.90;94.40
37446;DHT22;23307;51.136;14.942;2024-03-22T15:12:35;16.90;94.00
37446;DHT22;23307;51.136;14.942;2024-03-22T15:15:01;16.80;94.10
37446;DHT22;23307;51.136;14.942;2024-03-22T15:17:29;16.80;94.10